createdAt,value
2023-01-13T00:02:03.363Z,2.73
2023-01-13T00:04:35.371Z,2.20
2023-01-13T00:07:07.275Z,2.60
2023-01-13T00:09:39.262Z,2.90
2023-01-13T00:12:11.183Z,3.17
2023-01-13T00:14:43.158Z,3.07
2023-01-13T00:17:15.124Z,3.27
2023-01-13T00:19:47.907Z,3.13
2023-01-13T00:22:19.826Z,3.20
2023-01-13T00:24:51.802Z,3.07
2023-01-13T00:27:25.013Z,3.33
2023-01-13T00:29:56.911Z,3.37
2023-01-13T00:32:29.037Z,3.13
2023-01-13T00:35:01.042Z,3.17
2023-01-13T00:37:35.934Z,3.00
2023-01-13T00:40:09.016Z,3.30
2023-01-13T00:42:59.561Z,3.13
2023-01-13T00:45:31.475Z,3.80
2023-01-13T00:48:03.535Z,3.47
2023-01-13T00:50:35.442Z,3.30
2023-01-13T00:53:07.357Z,3.50
2023-01-13T00:55:39.702Z,3.53
2023-01-13T00:58:11.615Z,3.73
2023-01-13T01:00:43.559Z,4.00
2023-01-13T01:03:15.484Z,3.23
2023-01-13T01:05:47.539Z,3.93
2023-01-13T01:08:19.434Z,4.13
2023-01-13T01:11:04.931Z,2.90
2023-01-13T01:13:38.167Z,3.07
2023-01-13T01:16:18.501Z,3.40
2023-01-13T01:18:53.999Z,3.90
2023-01-13T01:21:28.415Z,3.57
2023-01-13T01:24:02.837Z,3.60
2023-01-13T01:26:34.832Z,4.13
2023-01-13T01:29:06.702Z,3.60
2023-01-13T01:31:38.685Z,3.60
2023-01-13T01:34:10.880Z,3.43
2023-01-13T01:36:42.872Z,3.20
2023-01-13T01:39:14.789Z,3.33
2023-01-13T01:42:06.722Z,3.43
2023-01-13T01:45:10.691Z,3.93
2023-01-13T01:47:43.122Z,3.73
2023-01-13T01:50:17.008Z,3.80
2023-01-13T01:52:56.725Z,4.17
2023-01-13T01:55:33.960Z,4.80
2023-01-13T01:58:29.030Z,4.43
2023-01-13T02:01:01.477Z,3.57
2023-01-13T02:03:39.322Z,4.50
2023-01-13T02:06:13.388Z,4.10
2023-01-13T02:08:46.413Z,5.30
2023-01-13T02:11:52.597Z,4.43
2023-01-13T02:14:29.061Z,4.30
2023-01-13T02:17:57.257Z,4.63
2023-01-13T02:20:36.173Z,4.80
2023-01-13T02:24:14.157Z,4.60
2023-01-13T02:27:25.825Z,4.87
2023-01-13T02:30:59.776Z,4.90
2023-01-13T02:34:10.072Z,5.10
2023-01-13T02:37:13.217Z,4.83
2023-01-13T02:40:02.915Z,4.57
2023-01-13T02:43:02.407Z,5.10
2023-01-13T02:45:48.441Z,4.50
2023-01-13T02:48:24.220Z,5.03
2023-01-13T02:51:13.589Z,5.07
2023-01-13T02:54:00.778Z,4.63
2023-01-13T02:56:40.180Z,3.70
2023-01-13T02:59:13.352Z,4.43
2023-01-13T03:01:47.721Z,4.57
2023-01-13T03:04:51.226Z,4.40
2023-01-13T03:08:06.318Z,4.37
2023-01-13T03:10:49.573Z,3.87
2023-01-13T03:13:57.824Z,4.13
2023-01-13T03:17:16.139Z,4.47
2023-01-13T03:19:56.832Z,4.13
2023-01-13T03:22:48.765Z,3.40
2023-01-13T03:25:34.320Z,3.93
2023-01-13T03:28:34.976Z,4.07
2023-01-13T03:31:32.405Z,3.53
2023-01-13T03:34:17.270Z,3.63
2023-01-13T03:36:54.420Z,3.37
2023-01-13T03:39:35.021Z,3.00
2023-01-13T03:42:18.945Z,2.40
2023-01-13T03:45:18.274Z,2.57
2023-01-13T03:47:57.408Z,2.23
2023-01-13T03:50:44.420Z,2.33
2023-01-13T03:53:29.967Z,1.70
2023-01-13T03:56:12.757Z,1.70
2023-01-13T03:58:51.192Z,1.87
2023-01-13T04:01:52.266Z,1.83
2023-01-13T04:04:34.444Z,2.60
2023-01-13T04:07:39.888Z,1.83
2023-01-13T04:10:16.678Z,2.60
2023-01-13T04:13:02.871Z,2.20
2023-01-13T04:15:45.926Z,2.20
2023-01-13T04:18:26.561Z,2.27
2023-01-13T04:21:01.860Z,3.30
2023-01-13T04:23:34.287Z,2.60
2023-01-13T04:26:06.455Z,2.70
2023-01-13T04:28:40.727Z,2.50
2023-01-13T04:31:12.901Z,2.50
2023-01-13T04:33:44.939Z,2.70
2023-01-13T04:36:16.898Z,2.73
2023-01-13T04:38:50.234Z,3.20
2023-01-13T04:41:22.344Z,3.03
2023-01-13T04:43:54.259Z,2.57
2023-01-13T04:46:26.182Z,2.77
2023-01-13T04:48:58.146Z,2.60
2023-01-13T04:51:30.074Z,2.67
2023-01-13T04:54:02.063Z,3.10
2023-01-13T04:56:34.122Z,2.90
2023-01-13T04:59:06.192Z,3.07
2023-01-13T05:01:38.922Z,3.50
2023-01-13T05:04:11.013Z,2.90
2023-01-13T05:06:43.046Z,3.03
2023-01-13T05:09:15.826Z,2.70
2023-01-13T05:12:06.093Z,3.23
2023-01-13T05:14:56.639Z,2.73
2023-01-13T05:17:28.635Z,2.90
2023-01-13T05:20:00.551Z,2.80
2023-01-13T05:22:50.968Z,2.63
2023-01-13T05:25:25.356Z,3.27
2023-01-13T05:28:01.167Z,2.93
2023-01-13T05:30:42.551Z,2.70
2023-01-13T05:33:18.001Z,2.90
2023-01-13T05:35:50.127Z,3.10
2023-01-13T05:38:22.126Z,2.93
2023-01-13T05:41:12.442Z,2.90
2023-01-13T05:43:44.365Z,2.80
2023-01-13T05:46:17.769Z,2.70
2023-01-13T05:48:49.796Z,2.90
2023-01-13T05:51:26.244Z,2.80
2023-01-13T05:53:59.323Z,3.43
2023-01-13T05:56:31.325Z,2.50
2023-01-13T05:59:03.618Z,3.40
2023-01-13T06:01:37.225Z,2.80
2023-01-13T06:04:09.224Z,2.90
2023-01-13T06:06:41.227Z,3.10
2023-01-13T06:09:13.329Z,2.90
2023-01-13T06:11:46.490Z,2.90
2023-01-13T06:14:18.539Z,2.77
2023-01-13T06:16:50.570Z,2.70
2023-01-13T06:19:22.501Z,3.37
2023-01-13T06:21:57.967Z,2.80
2023-01-13T06:24:29.907Z,2.60
2023-01-13T06:27:01.945Z,2.53
2023-01-13T06:29:34.135Z,2.90
2023-01-13T06:32:14.592Z,3.03
2023-01-13T06:34:54.812Z,2.67
2023-01-13T06:37:29.324Z,2.67
2023-01-13T06:40:05.047Z,2.90
2023-01-13T06:42:56.959Z,2.90
2023-01-13T06:45:31.545Z,3.00
2023-01-13T06:48:03.751Z,3.83
2023-01-13T06:50:35.806Z,2.57
2023-01-13T06:53:08.321Z,2.70
2023-01-13T06:55:40.523Z,2.93
2023-01-13T06:58:12.931Z,2.57
2023-01-13T07:00:44.963Z,3.30
2023-01-13T07:03:18.748Z,3.20
2023-01-13T07:05:55.735Z,3.53
2023-01-13T07:08:28.157Z,2.77
2023-01-13T07:11:03.102Z,3.20
2023-01-13T07:13:54.163Z,3.57
2023-01-13T07:16:28.198Z,2.87
2023-01-13T07:19:00.183Z,3.00
2023-01-13T07:21:32.230Z,3.33
2023-01-13T07:24:04.502Z,3.40
2023-01-13T07:26:36.443Z,3.20
2023-01-13T07:29:08.526Z,3.43
2023-01-13T07:31:40.577Z,3.33
2023-01-13T07:34:12.511Z,3.40
2023-01-13T07:36:44.447Z,3.43
2023-01-13T07:39:16.433Z,3.40
2023-01-13T07:42:07.056Z,3.23
2023-01-13T07:44:38.955Z,2.90
2023-01-13T07:47:11.327Z,3.10
2023-01-13T07:49:43.367Z,3.40
2023-01-13T07:52:15.598Z,3.10
2023-01-13T07:54:47.589Z,3.93
2023-01-13T07:57:19.600Z,3.23
2023-01-13T07:59:51.581Z,3.47
2023-01-13T08:02:23.864Z,3.60
2023-01-13T08:04:55.886Z,3.70
2023-01-13T08:07:27.832Z,3.53
2023-01-13T08:09:59.722Z,3.40
2023-01-13T08:12:55.882Z,3.37
2023-01-13T08:15:29.850Z,3.37
2023-01-13T08:18:01.794Z,3.50
2023-01-13T08:20:34.701Z,3.63
2023-01-13T08:23:07.466Z,3.20
2023-01-13T08:25:39.603Z,3.50
2023-01-13T08:28:13.067Z,3.47
2023-01-13T08:30:45.184Z,3.50
2023-01-13T08:33:17.599Z,3.43
2023-01-13T08:35:52.645Z,3.47
2023-01-13T08:38:25.354Z,3.70
2023-01-13T08:40:57.685Z,3.33
2023-01-13T08:43:29.656Z,4.00
2023-01-13T08:46:04.713Z,4.33
2023-01-13T08:48:37.125Z,3.70
2023-01-13T08:51:09.729Z,4.00
2023-01-13T08:53:41.713Z,3.40
2023-01-13T08:56:14.919Z,3.93
2023-01-13T08:58:47.025Z,3.70
2023-01-13T09:01:23.211Z,4.53
2023-01-13T09:03:55.978Z,4.23
2023-01-13T09:06:28.042Z,4.13
2023-01-13T09:09:00.806Z,4.27
2023-01-13T09:11:57.573Z,4.33
2023-01-13T09:14:32.911Z,3.83
2023-01-13T09:17:05.103Z,3.93
2023-01-13T09:19:37.419Z,3.53
2023-01-13T09:22:16.112Z,4.57
2023-01-13T09:24:48.080Z,4.90
2023-01-13T09:27:20.941Z,4.27
2023-01-13T09:29:52.940Z,4.33
2023-01-13T09:32:24.870Z,4.10
2023-01-13T09:35:02.923Z,4.10
2023-01-13T09:37:40.861Z,3.73
2023-01-13T09:40:22.875Z,4.53
2023-01-13T09:43:38.126Z,4.00
2023-01-13T09:46:41.370Z,4.93
2023-01-13T09:49:29.658Z,4.60
2023-01-13T09:52:19.755Z,4.27
2023-01-13T09:55:30.331Z,4.47
2023-01-13T09:58:12.140Z,4.40
2023-01-13T10:01:36.782Z,4.43
2023-01-13T10:04:15.129Z,4.00
2023-01-13T10:07:01.700Z,4.53
2023-01-13T10:09:49.643Z,4.63
2023-01-13T10:12:45.496Z,4.20
2023-01-13T10:15:23.488Z,4.50
2023-01-13T10:18:08.394Z,4.57
2023-01-13T10:21:01.120Z,5.17
2023-01-13T10:23:45.375Z,4.90
2023-01-13T10:26:25.351Z,4.90
2023-01-13T10:28:58.280Z,4.27
2023-01-13T10:31:30.234Z,4.37
2023-01-13T10:34:04.252Z,5.17
2023-01-13T10:36:36.288Z,4.50
2023-01-13T10:39:15.937Z,5.13
2023-01-13T10:41:47.882Z,5.43
2023-01-13T10:44:19.806Z,4.63
2023-01-13T10:46:55.905Z,4.57
2023-01-13T10:49:38.573Z,5.17
2023-01-13T10:52:37.661Z,4.10
2023-01-13T10:55:37.066Z,4.43
2023-01-13T10:58:19.663Z,4.60
2023-01-13T11:01:01.473Z,4.40
2023-01-13T11:03:43.185Z,4.30
2023-01-13T11:06:26.673Z,4.60
2023-01-13T11:08:59.036Z,4.17
2023-01-13T11:11:33.708Z,4.70
2023-01-13T11:14:33.798Z,4.37
2023-01-13T11:17:26.955Z,4.73
2023-01-13T11:20:15.796Z,4.80
2023-01-13T11:22:55.902Z,4.07
2023-01-13T11:25:42.479Z,4.50
2023-01-13T11:28:35.527Z,3.97
2023-01-13T11:31:40.027Z,4.47
2023-01-13T11:34:37.362Z,4.17
2023-01-13T11:37:33.563Z,4.70
2023-01-13T11:40:25.903Z,3.90
2023-01-13T11:43:16.534Z,4.17
2023-01-13T11:45:55.893Z,4.70
2023-01-13T11:48:35.426Z,4.40
2023-01-13T11:51:43.388Z,3.73
2023-01-13T11:54:40.959Z,4.10
2023-01-13T11:57:46.729Z,4.37
2023-01-13T12:00:36.527Z,4.17
2023-01-13T12:03:38.403Z,4.80
2023-01-13T12:06:40.139Z,3.77
2023-01-13T12:09:39.458Z,3.87
2023-01-13T12:12:53.792Z,3.67
2023-01-13T12:15:51.827Z,4.07
2023-01-13T12:18:45.468Z,3.10
2023-01-13T12:21:31.654Z,3.77
2023-01-13T12:24:42.933Z,3.80
2023-01-13T12:27:34.267Z,3.83
2023-01-13T12:30:46.178Z,3.93
2023-01-13T12:33:42.920Z,3.90
2023-01-13T12:36:28.079Z,3.20
2023-01-13T12:39:31.770Z,3.17
2023-01-13T12:42:46.680Z,3.27
2023-01-13T12:45:34.213Z,3.23
2023-01-13T12:48:06.767Z,2.63
2023-01-13T12:50:40.886Z,3.77
2023-01-13T12:53:36.386Z,3.40
2023-01-13T12:56:29.479Z,3.30
2023-01-13T12:59:19.937Z,3.33
2023-01-13T13:02:12.100Z,3.60
2023-01-13T13:04:54.088Z,2.97
2023-01-13T13:07:49.092Z,3.27
2023-01-13T13:10:40.669Z,2.83
2023-01-13T13:13:48.948Z,2.80
2023-01-13T13:16:52.334Z,3.23
2023-01-13T13:19:25.293Z,2.73
2023-01-13T13:22:12.457Z,2.57
2023-01-13T13:25:04.275Z,2.77
2023-01-13T13:28:11.838Z,3.47
2023-01-13T13:31:02.071Z,3.10
2023-01-13T13:34:16.156Z,3.20
2023-01-13T13:37:04.349Z,3.30
2023-01-13T13:39:55.311Z,2.73
2023-01-13T13:42:54.602Z,3.23
2023-01-13T13:45:46.932Z,2.67
2023-01-13T13:48:39.246Z,3.10
2023-01-13T13:51:23.263Z,3.33
2023-01-13T13:53:56.988Z,2.80
2023-01-13T13:56:37.327Z,2.87
2023-01-13T13:59:15.765Z,3.53
2023-01-13T14:02:02.214Z,3.30
2023-01-13T14:04:38.036Z,2.70
2023-01-13T14:07:21.228Z,3.00
2023-01-13T14:09:55.058Z,3.20
2023-01-13T14:12:27.909Z,3.73
2023-01-13T14:15:00.167Z,3.55
2023-01-13T14:17:32.149Z,3.07
2023-01-13T14:20:14.608Z,2.97
2023-01-13T14:22:49.149Z,3.60
2023-01-13T14:25:39.647Z,3.40
2023-01-13T14:28:34.030Z,3.50
2023-01-13T14:31:09.307Z,3.37
2023-01-13T14:33:49.114Z,3.37
2023-01-13T14:36:37.091Z,3.20
2023-01-13T14:39:11.311Z,3.40
2023-01-13T14:41:43.168Z,3.50
2023-01-13T14:44:28.623Z,3.67
2023-01-13T14:47:18.030Z,3.63
2023-01-13T14:50:28.127Z,3.53
2023-01-13T14:53:01.491Z,3.03
2023-01-13T14:55:38.633Z,3.10
2023-01-13T14:58:23.347Z,3.23
2023-01-13T15:01:36.504Z,3.20
2023-01-13T15:04:31.750Z,3.40
2023-01-13T15:07:04.763Z,3.20
2023-01-13T15:09:42.165Z,3.60
2023-01-13T15:12:36.269Z,3.23
2023-01-13T15:15:37.642Z,3.50
2023-01-13T15:18:15.858Z,2.87
2023-01-13T15:20:47.912Z,3.80
2023-01-13T15:23:20.990Z,3.53
2023-01-13T15:25:54.692Z,3.23
2023-01-13T15:28:27.996Z,4.13
2023-01-13T15:31:01.784Z,3.60
2023-01-13T15:33:33.831Z,3.37
2023-01-13T15:36:17.641Z,3.90
2023-01-13T15:38:50.674Z,3.70
2023-01-13T15:41:41.560Z,3.90
2023-01-13T15:44:34.221Z,3.43
2023-01-13T15:47:09.743Z,3.50
2023-01-13T15:49:46.218Z,3.40
2023-01-13T15:52:23.276Z,3.37
2023-01-13T15:54:55.632Z,3.63
2023-01-13T15:57:32.738Z,3.67
2023-01-13T16:00:14.688Z,4.03
2023-01-13T16:02:47.044Z,5.20
2023-01-13T16:05:19.096Z,4.03
2023-01-13T16:07:51.259Z,3.80
2023-01-13T16:10:28.049Z,3.97
2023-01-13T16:13:00.210Z,3.17
2023-01-13T16:15:33.559Z,3.00
2023-01-13T16:18:05.659Z,3.40
2023-01-13T16:20:37.712Z,3.03
2023-01-13T16:23:10.889Z,3.30
2023-01-13T16:25:45.023Z,2.87
2023-01-13T16:28:24.488Z,3.57
2023-01-13T16:30:56.479Z,2.80
2023-01-13T16:33:28.469Z,3.53
2023-01-13T16:36:10.206Z,3.23
2023-01-13T16:38:44.374Z,2.90
2023-01-13T16:41:16.751Z,3.03
2023-01-13T16:43:49.127Z,3.20
2023-01-13T16:46:28.517Z,3.23
2023-01-13T16:49:05.919Z,2.97
2023-01-13T16:51:37.889Z,3.30
2023-01-13T16:54:09.890Z,3.45
2023-01-13T16:56:41.989Z,3.20
2023-01-13T16:59:14.965Z,3.30
2023-01-13T17:01:47.114Z,3.37
2023-01-13T17:04:23.466Z,3.30
2023-01-13T17:07:10.928Z,3.17
2023-01-13T17:09:42.975Z,3.30
2023-01-13T17:12:15.188Z,3.00
2023-01-13T17:14:47.145Z,3.13
2023-01-13T17:17:26.662Z,3.33
2023-01-13T17:19:58.638Z,3.20
2023-01-13T17:22:30.883Z,2.70
2023-01-13T17:25:03.522Z,3.57
2023-01-13T17:27:35.738Z,3.30
2023-01-13T17:30:09.377Z,3.20
2023-01-13T17:32:42.249Z,3.27
2023-01-13T17:35:18.912Z,2.73
2023-01-13T17:37:54.417Z,3.07
2023-01-13T17:40:26.387Z,3.50
2023-01-13T17:42:58.443Z,3.33
2023-01-13T17:45:30.546Z,3.37
2023-01-13T17:48:02.521Z,3.23
2023-01-13T17:50:34.969Z,3.37
2023-01-13T17:53:07.027Z,3.20
2023-01-13T17:55:39.029Z,3.20
2023-01-13T17:58:10.943Z,3.47
2023-01-13T18:00:42.937Z,3.17
2023-01-13T18:03:16.873Z,3.90
2023-01-13T18:05:49.433Z,3.13
2023-01-13T18:08:23.655Z,3.77
2023-01-13T18:10:57.886Z,3.67
2023-01-13T18:13:31.639Z,3.77
2023-01-13T18:16:12.169Z,3.90
2023-01-13T18:18:47.212Z,3.90
2023-01-13T18:21:46.273Z,3.47
2023-01-13T18:24:36.893Z,3.80
2023-01-13T18:27:23.833Z,3.20
2023-01-13T18:29:59.174Z,3.63
2023-01-13T18:32:33.450Z,3.87
2023-01-13T18:35:10.416Z,4.20
2023-01-13T18:37:43.102Z,3.83
2023-01-13T18:40:15.225Z,4.30
2023-01-13T18:42:54.592Z,4.90
2023-01-13T18:45:32.143Z,4.00
2023-01-13T18:48:05.951Z,4.37
2023-01-13T18:50:37.904Z,4.13
2023-01-13T18:53:09.878Z,6.43
2023-01-13T18:55:43.334Z,5.43
2023-01-13T18:58:15.673Z,5.87
2023-01-13T19:00:47.668Z,4.90
2023-01-13T19:03:29.887Z,4.33
2023-01-13T19:06:04.796Z,4.43
2023-01-13T19:08:37.296Z,4.40
2023-01-13T19:11:09.253Z,4.33
2023-01-13T19:13:41.180Z,4.00
2023-01-13T19:16:13.449Z,3.67
2023-01-13T19:18:46.455Z,3.77
2023-01-13T19:21:18.665Z,3.77
2023-01-13T19:23:54.761Z,3.97
2023-01-13T19:26:26.883Z,3.70
2023-01-13T19:28:58.839Z,4.17
2023-01-13T19:31:31.299Z,4.07
2023-01-13T19:34:03.306Z,4.27
2023-01-13T19:36:35.305Z,3.53
2023-01-13T19:39:08.343Z,4.00
2023-01-13T19:41:58.737Z,3.97
2023-01-13T19:44:49.627Z,3.13
2023-01-13T19:47:21.734Z,3.50
2023-01-13T19:49:53.720Z,3.57
2023-01-13T19:52:25.699Z,3.80
2023-01-13T19:54:57.786Z,3.20
2023-01-13T19:57:30.053Z,3.53
2023-01-13T20:00:02.830Z,3.70
2023-01-13T20:02:36.687Z,3.50
2023-01-13T20:05:09.361Z,3.70
2023-01-13T20:07:41.284Z,3.80
2023-01-13T20:10:13.544Z,4.03
2023-01-13T20:12:45.674Z,4.03
2023-01-13T20:15:17.853Z,3.90
2023-01-13T20:17:50.122Z,4.00
2023-01-13T20:20:22.522Z,4.37
2023-01-13T20:22:54.574Z,4.17
2023-01-13T20:25:28.917Z,4.17
2023-01-13T20:28:02.285Z,3.93
2023-01-13T20:30:34.283Z,4.07
2023-01-13T20:33:06.318Z,3.60
2023-01-13T20:35:38.323Z,3.60
2023-01-13T20:38:10.370Z,3.50
2023-01-13T20:40:42.340Z,4.00
2023-01-13T20:43:14.296Z,3.60
2023-01-13T20:45:46.253Z,3.70
2023-01-13T20:48:18.266Z,4.27
2023-01-13T20:50:55.186Z,4.30
2023-01-13T20:53:27.231Z,4.07
2023-01-13T20:55:59.269Z,4.93
2023-01-13T20:58:31.187Z,4.23
2023-01-13T21:01:03.385Z,4.23
2023-01-13T21:03:35.493Z,5.10
2023-01-13T21:06:08.313Z,4.53
2023-01-13T21:08:40.255Z,5.17
2023-01-13T21:11:14.907Z,5.13
2023-01-13T21:14:05.243Z,5.83
2023-01-13T21:16:37.350Z,4.80
2023-01-13T21:19:10.682Z,4.80
2023-01-13T21:21:42.811Z,5.77
2023-01-13T21:24:14.876Z,5.10
2023-01-13T21:26:49.166Z,4.73
2023-01-13T21:29:21.407Z,5.03
2023-01-13T21:31:54.523Z,4.43
2023-01-13T21:47:38.696Z,3.97
2023-01-13T21:50:13.111Z,4.67
2023-01-13T21:52:48.032Z,4.70
2023-01-13T21:55:29.290Z,4.47
2023-01-13T21:58:13.659Z,4.73
2023-01-13T22:00:46.320Z,4.53
2023-01-13T22:03:21.445Z,5.53
2023-01-13T22:05:55.738Z,4.50
2023-01-13T22:08:27.958Z,5.87
2023-01-13T22:11:03.246Z,4.87
2023-01-13T22:13:53.932Z,6.23
2023-01-13T22:16:26.422Z,6.97
2023-01-13T22:18:58.438Z,5.93
2023-01-13T22:21:30.416Z,6.23
2023-01-13T22:24:02.584Z,5.17
2023-01-13T22:26:34.742Z,5.67
2023-01-13T22:29:06.849Z,5.40
2023-01-13T22:31:38.906Z,4.80
2023-01-13T22:34:12.903Z,5.10
2023-01-13T22:36:44.900Z,5.67
2023-01-13T22:39:16.881Z,5.20
2023-01-13T22:41:48.836Z,5.13
2023-01-13T22:44:21.993Z,5.00
2023-01-13T22:46:54.050Z,5.63
2023-01-13T22:49:26.110Z,4.77
2023-01-13T22:51:58.072Z,5.10
2023-01-13T22:54:30.080Z,5.37
2023-01-13T22:57:02.014Z,6.17
2023-01-13T22:59:33.989Z,5.20
2023-01-13T23:02:06.128Z,4.63
2023-01-13T23:04:38.148Z,4.73
2023-01-13T23:07:10.054Z,4.93
2023-01-13T23:09:41.972Z,4.27
2023-01-13T23:12:13.939Z,4.57
2023-01-13T23:14:45.881Z,4.43
2023-01-13T23:17:18.299Z,5.03
2023-01-13T23:19:50.244Z,4.80
2023-01-13T23:22:22.216Z,4.57
2023-01-13T23:24:54.165Z,5.40
2023-01-13T23:27:26.058Z,4.53
2023-01-13T23:29:58.029Z,4.70
2023-01-13T23:32:30.015Z,4.40
2023-01-13T23:35:03.378Z,4.87
2023-01-13T23:37:35.373Z,4.70
2023-01-13T23:40:09.580Z,4.27
2023-01-13T23:42:41.496Z,5.00
2023-01-13T23:45:13.457Z,4.47
2023-01-13T23:47:45.383Z,4.37
2023-01-13T23:50:17.690Z,4.57
2023-01-13T23:52:49.637Z,4.93
2023-01-13T23:55:21.815Z,4.93
2023-01-13T23:57:53.818Z,5.33
